Mari Lampton — WDE3648 — position and weather

sailwx.info

Track history (hours):
 
Tides and Currents Weather Stations Pressure Air Temp Water Temp Dewpoint Dewpoint Depression Visibility Wind Speed Wind Dir Waves Ship Positions

Mari Lampton

Owner: MAgnolia Marine Transport Company, Vicksburg, MS. More information available from US FCC via Universal Licensing System and Coast Guard Vessel Documentation Center.

Last reported at 2014-Oct-08 06:10 UTC. Time now 2014-Nov-28 14:31 UTC.
Position N 29°60' W 090°48'.
Warning: this ship's position is 51 days out of date.

Type: Towing. MMSI: 367342210.

Date/timePositionNaut miles runAvg speedWind from/ knotsBaromVisibWave heightAir tempDewpointWater temp
2014-Oct-08 06:10N 29°60' W 090°48'4 6.3
2014-Oct-08 05:33N 30°01' W 090°44'6 5.7
2014-Oct-08 04:33N 30°02' W 090°37'6 5.9
2014-Oct-08 03:33N 30°03' W 090°30'5 5.3
2014-Oct-08 02:33N 29°60' W 090°26'6 0.3
2014-Oct-07 10:33N 29°56' W 090°21'3 2.5
2014-Oct-07 09:29N 29°57' W 090°23'3 0.1
2014-Oct-06 11:22N 29°56' W 090°20'3 2.6
2014-Oct-06 10:21N 29°57' W 090°23'0 0.2
2014-Oct-06 09:31N 29°57' W 090°23'5 5.5
2014-Oct-06 08:33N 30°00' W 090°28'6 6.2
2014-Oct-06 07:33N 30°03' W 090°35'7 6.8
2014-Oct-06 06:33N 30°02' W 090°42'  
Track history (hours):
 
Tides and Currents Weather Stations Pressure Air Temp Water Temp Dewpoint Dewpoint Depression Visibility Wind Speed Wind Dir Waves Ship Positions

Mari Lampton

Owner: MAgnolia Marine Transport Company, Vicksburg, MS. More information available from US FCC via Universal Licensing System and Coast Guard Vessel Documentation Center.

Last reported at 2014-Oct-08 06:10 UTC. Time now 2014-Nov-28 14:31 UTC.
Position N 29°60' W 090°48'.
Warning: this ship's position is 51 days out of date.

Type: Towing. MMSI: 367342210.

Date/timePositionNaut miles runAvg speedWind from/ knotsBaromVisibWave heightAir tempDewpointWater temp
2014-Oct-08 06:10N 29°60' W 090°48'4 6.3
2014-Oct-08 05:33N 30°01' W 090°44'6 5.7
2014-Oct-08 04:33N 30°02' W 090°37'6 5.9
2014-Oct-08 03:33N 30°03' W 090°30'5 5.3
2014-Oct-08 02:33N 29°60' W 090°26'6 0.3
2014-Oct-07 10:33N 29°56' W 090°21'3 2.5
2014-Oct-07 09:29N 29°57' W 090°23'3 0.1
2014-Oct-06 11:22N 29°56' W 090°20'3 2.6
2014-Oct-06 10:21N 29°57' W 090°23'0 0.2
2014-Oct-06 09:31N 29°57' W 090°23'5 5.5
2014-Oct-06 08:33N 30°00' W 090°28'6 6.2
2014-Oct-06 07:33N 30°03' W 090°35'7 6.8
2014-Oct-06 06:33N 30°02' W 090°42'  

Dump ship's entire track history